Time;durP1;ratioP1;P1;durP2;ratioP2;P2;SDS_P1;SDS_P2;PMS_P1;PMS_P2;Temp;Humidity;BMP_temperature;BMP_pressure;BME280_temperature;BME280_humidity;BME280_pressure;Samples;Min_cycle;Max_cycle;Signal;HPM_P1;HPM_P2
2023/09/23 04:49:06;;;;;;;0.70;0.70;;;;;;;;;;5094251;27;20393;-85
2023/09/23 04:51:31;;;;;;;7.13;1.58;;;;;;;;;;5099862;28;20558;-86
2023/09/23 04:53:57;;;;;;;4.15;1.38;;;;;;;;;;5103162;28;20115;-86
2023/09/23 04:56:22;;;;;;;1.13;0.88;;;;;;;;;;5102328;28;20024;-85
2023/09/23 04:58:48;;;;;;;2.67;1.30;;;;;;;;;;5099519;28;20357;-86
2023/09/23 05:01:14;;;;;;;0.98;0.70;;;;;;;;;;5104887;28;20024;-85
2023/09/23 05:03:43;;;;;;;3.17;1.42;;;;;;;;;;5104042;28;20024;-86
2023/09/23 05:06:09;;;;;;;1.13;0.77;;;;;;;;;;5100346;28;20092;-86
2023/09/23 05:08:35;;;;;;;2.78;1.25;;;;;;;;;;5102734;28;20015;-86
2023/09/23 05:11:03;;;;;;;1.48;1.00;;;;;;;;;;5104730;28;20036;-87
2023/09/23 05:13:29;;;;;;;1.75;1.08;;;;;;;;;;5100119;28;20115;-87
2023/09/23 05:15:55;;;;;;;1.27;0.88;;;;;;;;;;5099330;28;20038;-87
2023/09/23 05:18:20;;;;;;;1.08;0.80;;;;;;;;;;5100044;28;20032;-85
2023/09/23 05:20:47;;;;;;;1.85;1.08;;;;;;;;;;5102692;28;20032;-87
2023/09/23 05:23:13;;;;;;;1.67;1.27;;;;;;;;;;5101057;28;20024;-82
2023/09/23 05:25:41;;;;;;;2.97;1.25;;;;;;;;;;5098798;28;20034;-83
2023/09/23 05:28:06;;;;;;;1.38;1.20;;;;;;;;;;5098520;28;20027;-82
2023/09/23 05:30:32;;;;;;;8.45;1.15;;;;;;;;;;5095972;28;20036;-80
2023/09/23 05:32:57;;;;;;;1.20;0.88;;;;;;;;;;5096792;28;20024;-80
2023/09/23 05:35:22;;;;;;;1.83;1.33;;;;;;;;;;5101669;28;20053;-82
2023/09/23 05:37:49;;;;;;;3.28;1.60;;;;;;;;;;5100142;28;20020;-81
2023/09/23 05:42:47;;;;;;;3.88;1.48;;;;;;;;;;5101799;28;20023;-80
2023/09/23 05:45:14;;;;;;;8.18;1.08;;;;;;;;;;5097624;28;20043;-80
2023/09/23 05:47:45;;;;;;;12.02;1.83;;;;;;;;;;5100050;28;20391;-82
2023/09/23 05:50:11;;;;;;;2.72;1.42;;;;;;;;;;5096042;28;20081;-81
2023/09/23 05:52:37;;;;;;;8.85;1.98;;;;;;;;;;5095637;28;20028;-79
2023/09/23 05:55:04;;;;;;;2.13;1.20;;;;;;;;;;5092922;28;20028;-81
2023/09/23 05:57:30;;;;;;;2.90;2.00;;;;;;;;;;5094480;28;20038;-84
2023/09/23 05:59:55;;;;;;;2.78;1.08;;;;;;;;;;5086233;28;20046;-82
2023/09/23 06:02:21;;;;;;;1.85;1.13;;;;;;;;;;5082312;28;20024;-79
2023/09/23 06:04:47;;;;;;;3.95;1.65;;;;;;;;;;5086620;28;20031;-82
2023/09/23 06:07:12;;;;;;;1.90;1.30;;;;;;;;;;5082641;28;20488;-82
2023/09/23 06:09:38;;;;;;;1.90;1.23;;;;;;;;;;5100642;28;20464;-81
2023/09/23 06:12:04;;;;;;;5.28;1.38;;;;;;;;;;5088736;28;20028;-82
2023/09/23 06:14:29;;;;;;;2.70;1.50;;;;;;;;;;5085535;28;20040;-82
2023/09/23 06:16:54;;;;;;;3.90;1.48;;;;;;;;;;5085166;28;20122;-82
2023/09/23 06:19:20;;;;;;;1.73;1.35;;;;;;;;;;5083873;28;20033;-82
2023/09/23 06:21:45;;;;;;;3.40;1.25;;;;;;;;;;5085285;28;20097;-85
2023/09/23 06:24:11;;;;;;;1.98;1.25;;;;;;;;;;5089226;28;20460;-81
2023/09/23 06:26:38;;;;;;;3.03;1.42;;;;;;;;;;5084212;28;20178;-84
2023/09/23 06:29:04;;;;;;;6.57;1.98;;;;;;;;;;5090026;28;20027;-81
2023/09/23 06:31:30;;;;;;;10.88;2.38;;;;;;;;;;5090422;28;20533;-87
2023/09/23 06:33:55;;;;;;;3.22;1.75;;;;;;;;;;5088340;28;20035;-85
2023/09/23 06:36:21;;;;;;;1.60;1.20;;;;;;;;;;5087929;28;20380;-82
2023/09/23 06:38:47;;;;;;;2.25;1.52;;;;;;;;;;5084656;28;20399;-81
2023/09/23 06:41:12;;;;;;;2.45;2.15;;;;;;;;;;5083201;28;20033;-82
2023/09/23 06:43:37;;;;;;;8.98;1.92;;;;;;;;;;5081898;28;20140;-87
2023/09/23 06:46:03;;;;;;;10.77;1.98;;;;;;;;;;5080803;28;20020;-82
2023/09/23 06:48:29;;;;;;;3.22;2.00;;;;;;;;;;5085423;28;20036;-83
2023/09/23 06:50:59;;;;;;;2.67;1.40;;;;;;;;;;5080279;28;20166;-83
2023/09/23 06:53:24;;;;;;;1.73;1.40;;;;;;;;;;5104260;28;20042;-83
2023/09/23 06:55:50;;;;;;;1.58;1.35;;;;;;;;;;5084616;28;20473;-84
2023/09/23 06:58:16;;;;;;;5.90;2.15;;;;;;;;;;5077061;28;20499;-80
2023/09/23 07:00:41;;;;;;;3.78;2.40;;;;;;;;;;5087496;28;20039;-81
2023/09/23 07:03:06;;;;;;;2.45;1.77;;;;;;;;;;5087073;28;20059;-81
2023/09/23 07:05:34;;;;;;;2.00;1.50;;;;;;;;;;5086192;28;20104;-81
2023/09/23 07:08:00;;;;;;;4.72;1.60;;;;;;;;;;5084657;28;20027;-79
2023/09/23 07:10:25;;;;;;;1.33;1.05;;;;;;;;;;5082988;28;20032;-84
2023/09/23 07:12:50;;;;;;;2.63;2.17;;;;;;;;;;5082589;28;20043;-84
2023/09/23 07:15:16;;;;;;;6.63;1.42;;;;;;;;;;5082615;28;20082;-84
2023/09/23 07:17:41;;;;;;;3.17;1.70;;;;;;;;;;5084567;28;21845;-84
2023/09/23 07:20:07;;;;;;;2.88;1.98;;;;;;;;;;5088483;28;20036;-85
2023/09/23 07:22:32;;;;;;;2.50;1.80;;;;;;;;;;5083587;28;20051;-83
2023/09/23 07:24:58;;;;;;;7.75;1.80;;;;;;;;;;5102437;28;20030;-84
2023/09/23 07:27:24;;;;;;;5.45;1.95;;;;;;;;;;5086960;28;20541;-83
2023/09/23 07:29:49;;;;;;;6.60;1.70;;;;;;;;;;5082799;28;20074;-84
2023/09/23 07:32:15;;;;;;;6.40;1.35;;;;;;;;;;5086876;28;20028;-80
2023/09/23 07:34:40;;;;;;;6.65;1.92;;;;;;;;;;5105824;28;20028;-82
2023/09/23 07:37:06;;;;;;;2.35;1.50;;;;;;;;;;5085014;28;20097;-83
2023/09/23 07:39:32;;;;;;;1.85;1.30;;;;;;;;;;5079041;28;20032;-82
2023/09/23 07:41:57;;;;;;;1.98;1.60;;;;;;;;;;5086123;28;20479;-81
2023/09/23 07:44:23;;;;;;;2.78;1.73;;;;;;;;;;5085316;28;20501;-80
2023/09/23 07:46:48;;;;;;;4.55;1.33;;;;;;;;;;5085940;28;20470;-81
2023/09/23 07:49:14;;;;;;;7.47;1.83;;;;;;;;;;5080900;28;20070;-82
2023/09/23 07:51:39;;;;;;;7.18;2.33;;;;;;;;;;5086378;28;20475;-81
2023/09/23 07:54:05;;;;;;;3.67;1.55;;;;;;;;;;5084457;28;20155;-83
2023/09/23 07:56:31;;;;;;;2.97;1.73;;;;;;;;;;5082276;28;20066;-80
2023/09/23 07:58:56;;;;;;;1.67;1.23;;;;;;;;;;5080460;28;20081;-84
2023/09/23 08:01:22;;;;;;;3.03;1.63;;;;;;;;;;5081044;28;20032;-84
2023/09/23 08:03:47;;;;;;;2.10;1.55;;;;;;;;;;5086080;28;20472;-83
2023/09/23 08:06:12;;;;;;;2.55;1.65;;;;;;;;;;5100377;28;20050;-84
2023/09/23 08:08:38;;;;;;;2.55;1.73;;;;;;;;;;5085279;28;20023;-83
2023/09/23 08:11:03;;;;;;;1.58;1.23;;;;;;;;;;5085909;28;20031;-83
2023/09/23 08:13:29;;;;;;;6.70;1.80;;;;;;;;;;5082982;28;20032;-83
2023/09/23 08:15:58;;;;;;;2.85;1.88;;;;;;;;;;5103807;28;20442;-79
2023/09/23 08:18:23;;;;;;;1.90;1.55;;;;;;;;;;5086425;28;20032;-80
2023/09/23 08:20:56;;;;;;;8.95;2.13;;;;;;;;;;5089245;28;20050;-81
2023/09/23 08:23:22;;;;;;;2.55;1.33;;;;;;;;;;5079456;28;20085;-81
2023/09/23 08:25:47;;;;;;;4.75;2.45;;;;;;;;;;5084137;28;20032;-80
2023/09/23 08:28:13;;;;;;;6.85;2.05;;;;;;;;;;5085199;28;20024;-79
2023/09/23 08:30:40;;;;;;;2.83;1.92;;;;;;;;;;5086762;28;20059;-80
2023/09/23 08:33:05;;;;;;;6.80;2.58;;;;;;;;;;5089145;28;21081;-80
2023/09/23 08:35:31;;;;;;;3.15;1.95;;;;;;;;;;5105397;28;20031;-79
2023/09/23 08:37:56;;;;;;;3.55;1.90;;;;;;;;;;5086368;28;20046;-80
2023/09/23 08:40:22;;;;;;;3.00;1.40;;;;;;;;;;5075688;28;20028;-80
2023/09/23 08:42:52;;;;;;;2.40;2.05;;;;;;;;;;5077347;28;20020;-80
2023/09/23 08:45:23;;;;;;;1.55;1.05;;;;;;;;;;5086157;28;20020;-80
2023/09/23 08:47:48;;;;;;;3.80;1.33;;;;;;;;;;5088548;28;20028;-80
2023/09/23 08:50:17;;;;;;;1.30;1.20;;;;;;;;;;5075457;28;20043;-80
2023/09/23 08:52:43;;;;;;;4.45;1.80;;;;;;;;;;5076591;28;20024;-81
2023/09/23 08:55:11;;;;;;;2.97;1.63;;;;;;;;;;5101504;28;20024;-79
2023/09/23 08:57:37;;;;;;;2.67;1.98;;;;;;;;;;5079207;28;20032;-80
2023/09/23 09:00:08;;;;;;;3.25;2.03;;;;;;;;;;5086215;28;20029;-79
2023/09/23 09:02:33;;;;;;;2.97;1.65;;;;;;;;;;5079602;28;20036;-80
2023/09/23 09:04:59;;;;;;;5.22;1.67;;;;;;;;;;5076344;28;20177;-79
2023/09/23 09:07:31;;;;;;;5.20;2.30;;;;;;;;;;5080466;28;20027;-81
2023/09/23 09:09:57;;;;;;;7.55;2.55;;;;;;;;;;5077572;28;20032;-81
2023/09/23 09:12:24;;;;;;;3.67;1.42;;;;;;;;;;5081955;28;20506;-82
2023/09/23 09:14:50;;;;;;;5.97;1.45;;;;;;;;;;5082800;28;20736;-81
2023/09/23 09:17:16;;;;;;;2.90;1.45;;;;;;;;;;5083024;28;20107;-83
2023/09/23 09:19:41;;;;;;;2.25;1.40;;;;;;;;;;5081659;28;20120;-83
2023/09/23 09:22:07;;;;;;;3.88;1.73;;;;;;;;;;5084099;28;20039;-82
2023/09/23 09:24:33;;;;;;;5.18;2.95;;;;;;;;;;5084785;28;20032;-83
2023/09/23 09:26:59;;;;;;;3.60;1.30;;;;;;;;;;5081601;28;20032;-85
2023/09/23 09:29:24;;;;;;;5.38;1.67;;;;;;;;;;5078092;28;20032;-83
2023/09/23 09:31:51;;;;;;;9.43;1.83;;;;;;;;;;5084860;28;20056;-84
2023/09/23 09:34:23;;;;;;;2.65;1.58;;;;;;;;;;5077864;28;20578;-83
2023/09/23 09:36:54;;;;;;;3.28;1.77;;;;;;;;;;5088901;28;20054;-81
2023/09/23 09:39:26;;;;;;;1.77;1.45;;;;;;;;;;5086678;28;20039;-83
2023/09/23 09:41:53;;;;;;;7.72;2.10;;;;;;;;;;5085289;28;20028;-85
2023/09/23 09:44:23;;;;;;;2.00;1.33;;;;;;;;;;5089465;28;20020;-83
2023/09/23 09:46:50;;;;;;;1.70;1.40;;;;;;;;;;5080358;28;20055;-81
2023/09/23 09:49:16;;;;;;;2.10;1.50;;;;;;;;;;5082745;28;20036;-82
2023/09/23 09:51:46;;;;;;;6.10;2.95;;;;;;;;;;5082799;28;20028;-81
2023/09/23 09:54:12;;;;;;;;;;;;;;;;;;5084277;28;20487;-81
2023/09/23 09:56:40;;;;;;;2.10;1.25;;;;;;;;;;5085511;28;19935;-83
2023/09/23 09:59:06;;;;;;;3.65;1.83;;;;;;;;;;5087998;28;20161;-82
2023/09/23 10:01:34;;;;;;;3.45;1.77;;;;;;;;;;5108253;28;20061;-83
2023/09/23 10:03:59;;;;;;;10.43;1.60;;;;;;;;;;5083662;28;20510;-81
2023/09/23 10:06:39;;;;;;;2.92;1.48;;;;;;;;;;5105633;28;20032;-83
2023/09/23 10:09:27;;;;;;;;;;;;;;;;;;;;;
2023/09/23 10:12:02;;;;;;;4.65;1.83;;;;;;;;;;5081916;28;20035;-81
2023/09/23 10:14:29;;;;;;;3.65;1.60;;;;;;;;;;5084092;28;20067;-82
2023/09/23 10:17:01;;;;;;;2.25;1.45;;;;;;;;;;5074961;28;20060;-82
2023/09/23 10:19:39;;;;;;;2.85;1.58;;;;;;;;;;5079909;28;20132;-82
2023/09/23 10:22:23;;;;;;;4.60;2.60;;;;;;;;;;5105717;28;20035;-81
2023/09/23 10:25:11;;;;;;;2.22;1.52;;;;;;;;;;5086699;28;20051;-83
2023/09/23 10:27:53;;;;;;;3.03;1.55;;;;;;;;;;5103840;28;20016;-82
2023/09/23 10:30:39;;;;;;;6.55;1.38;;;;;;;;;;5081693;28;20111;-84
2023/09/23 10:33:08;;;;;;;6.47;2.13;;;;;;;;;;5079389;28;20032;-84
2023/09/23 10:35:37;;;;;;;5.25;1.63;;;;;;;;;;5087386;28;20124;-82
2023/09/23 10:38:06;;;;;;;12.25;1.95;;;;;;;;;;5081544;28;20054;-86
2023/09/23 10:40:31;;;;;;;3.57;1.83;;;;;;;;;;5087154;28;20060;-82
2023/09/23 10:43:04;;;;;;;2.75;1.27;;;;;;;;;;5089186;28;20063;-85
2023/09/23 10:45:29;;;;;;;11.15;2.15;;;;;;;;;;5082872;28;20118;-83
2023/09/23 10:47:56;;;;;;;1.50;1.10;;;;;;;;;;5084258;28;20040;-84
2023/09/23 10:50:21;;;;;;;3.70;1.40;;;;;;;;;;5084165;28;20503;-85
2023/09/23 10:52:46;;;;;;;3.47;1.38;;;;;;;;;;5085934;28;20032;-83
2023/09/23 10:55:12;;;;;;;6.25;1.70;;;;;;;;;;5078418;28;20034;-84
2023/09/23 10:57:38;;;;;;;2.33;1.45;;;;;;;;;;5082377;28;20411;-83
2023/09/23 11:00:14;;;;;;;2.97;1.45;;;;;;;;;;5085298;28;20032;-85
2023/09/23 11:02:42;;;;;;;3.50;1.52;;;;;;;;;;5084581;28;20055;-82
2023/09/23 11:05:11;;;;;;;4.07;1.65;;;;;;;;;;5085740;28;20024;-84
2023/09/23 11:07:36;;;;;;;5.55;2.05;;;;;;;;;;5083767;28;20462;-84
2023/09/23 11:10:01;;;;;;;2.85;1.27;;;;;;;;;;5088429;28;20123;-81
2023/09/23 11:12:33;;;;;;;2.85;1.52;;;;;;;;;;5089868;28;20028;-84
2023/09/23 11:14:59;;;;;;;5.03;2.03;;;;;;;;;;5089329;28;20111;-82
2023/09/23 11:17:30;;;;;;;1.85;1.30;;;;;;;;;;5091234;28;20563;-83
2023/09/23 11:19:57;;;;;;;4.75;1.60;;;;;;;;;;5099790;28;20082;-82
2023/09/23 11:22:24;;;;;;;6.20;1.48;;;;;;;;;;5104021;28;20031;-83
2023/09/23 11:24:50;;;;;;;3.60;1.38;;;;;;;;;;5080999;28;20073;-80
2023/09/23 11:27:17;;;;;;;3.05;1.40;;;;;;;;;;5084080;28;20279;-82
2023/09/23 11:29:42;;;;;;;2.90;1.38;;;;;;;;;;5078281;28;20464;-83
2023/09/23 11:32:09;;;;;;;2.05;1.50;;;;;;;;;;5081706;28;20023;-83
2023/09/23 11:34:36;;;;;;;2.03;1.55;;;;;;;;;;5089989;28;20023;-83
2023/09/23 11:37:02;;;;;;;3.22;1.38;;;;;;;;;;5094294;28;20117;-84
2023/09/23 11:39:37;;;;;;;3.60;2.00;;;;;;;;;;5085513;28;20110;-81
2023/09/23 11:42:04;;;;;;;5.05;1.77;;;;;;;;;;5087234;28;20031;-85
2023/09/23 11:44:30;;;;;;;5.00;1.90;;;;;;;;;;5085996;28;20017;-81
2023/09/23 11:46:55;;;;;;;9.40;1.63;;;;;;;;;;5084863;28;20448;-81
2023/09/23 11:49:21;;;;;;;4.78;1.98;;;;;;;;;;5087922;28;20059;-85
2023/09/23 11:51:46;;;;;;;4.93;2.13;;;;;;;;;;5091316;28;20031;-83
2023/09/23 11:54:12;;;;;;;3.33;2.20;;;;;;;;;;5083577;28;20103;-83
2023/09/23 11:56:37;;;;;;;2.88;1.13;;;;;;;;;;5082659;28;20077;-84
2023/09/23 11:59:03;;;;;;;4.97;1.98;;;;;;;;;;5083508;28;20099;-83
2023/09/23 12:01:28;;;;;;;1.88;1.23;;;;;;;;;;5087817;28;20097;-84
2023/09/23 12:03:58;;;;;;;2.72;1.65;;;;;;;;;;5078380;28;20032;-84
2023/09/23 12:06:29;;;;;;;2.22;1.80;;;;;;;;;;5088281;28;20031;-84
2023/09/23 12:08:55;;;;;;;4.57;1.48;;;;;;;;;;5081683;28;20438;-82
2023/09/23 12:11:21;;;;;;;2.55;1.42;;;;;;;;;;5090253;28;20028;-84
2023/09/23 12:13:52;;;;;;;6.32;1.60;;;;;;;;;;5083123;28;20048;-83
2023/09/23 12:16:18;;;;;;;7.93;1.40;;;;;;;;;;5089756;28;20082;-83
2023/09/23 12:18:47;;;;;;;2.13;1.48;;;;;;;;;;5088452;28;20480;-80
2023/09/23 12:21:13;;;;;;;;;;;;;;;;;;5082926;28;20031;-81
2023/09/23 12:23:38;;;;;;;3.25;1.35;;;;;;;;;;5086630;28;19912;-81
2023/09/23 12:26:04;;;;;;;1.50;1.05;;;;;;;;;;5084935;28;20074;-81
2023/09/23 12:28:30;;;;;;;3.15;1.50;;;;;;;;;;5100147;28;20016;-80
2023/09/23 12:30:55;;;;;;;3.85;1.70;;;;;;;;;;5088630;28;20024;-81
2023/09/23 12:33:21;;;;;;;2.15;1.13;;;;;;;;;;5084150;28;20383;-81
2023/09/23 12:35:47;;;;;;;4.00;1.80;;;;;;;;;;5085028;28;20084;-81
2023/09/23 12:38:12;;;;;;;4.45;1.60;;;;;;;;;;5083585;28;20028;-80
2023/09/23 12:40:38;;;;;;;2.40;1.45;;;;;;;;;;5082781;28;20055;-80
2023/09/23 12:43:03;;;;;;;3.92;1.83;;;;;;;;;;5074372;28;20035;-79
2023/09/23 12:45:29;;;;;;;2.58;1.52;;;;;;;;;;5086355;28;20497;-81
2023/09/23 12:47:54;;;;;;;8.25;1.80;;;;;;;;;;5087259;28;20044;-81
2023/09/23 12:50:20;;;;;;;3.10;1.48;;;;;;;;;;5100741;28;20152;-79
2023/09/23 12:52:46;;;;;;;3.70;1.80;;;;;;;;;;5088881;28;20028;-80
2023/09/23 12:55:11;;;;;;;7.60;2.17;;;;;;;;;;5078848;28;20352;-88
2023/09/23 12:57:37;;;;;;;1.70;1.05;;;;;;;;;;5087997;28;20026;-84
2023/09/23 13:01:59;;;;;;;2.55;1.40;;;;;;;;;;5053958;28;20942;-82
2023/09/23 13:04:25;;;;;;;7.63;1.95;;;;;;;;;;5051073;28;20037;-84
2023/09/23 13:06:50;;;;;;;4.70;1.90;;;;;;;;;;5050600;28;20044;-84
2023/09/23 13:09:17;;;;;;;2.05;1.35;;;;;;;;;;5054090;28;20021;-84
2023/09/23 13:11:43;;;;;;;2.60;1.67;;;;;;;;;;5053984;28;20106;-82
2023/09/23 13:14:09;;;;;;;5.72;1.70;;;;;;;;;;5051365;28;20025;-82
2023/09/23 13:16:34;;;;;;;11.77;2.45;;;;;;;;;;5055655;28;20456;-83
2023/09/23 13:19:00;;;;;;;6.22;1.48;;;;;;;;;;5054028;28;20048;-84
2023/09/23 13:21:26;;;;;;;5.43;1.35;;;;;;;;;;5049316;28;20515;-83
2023/09/23 13:23:51;;;;;;;6.85;1.95;;;;;;;;;;5049971;28;20037;-83
2023/09/23 13:26:16;;;;;;;11.35;1.92;;;;;;;;;;5048883;28;20049;-82
2023/09/23 13:28:42;;;;;;;2.70;1.55;;;;;;;;;;5051173;28;20485;-84
2023/09/23 13:31:07;;;;;;;7.78;1.60;;;;;;;;;;5047329;28;20047;-81
2023/09/23 13:33:33;;;;;;;9.48;2.08;;;;;;;;;;5050650;28;20033;-84
2023/09/23 13:35:58;;;;;;;6.82;1.67;;;;;;;;;;5049952;28;20029;-82
2023/09/23 13:38:24;;;;;;;4.35;1.63;;;;;;;;;;5049306;28;20025;-83
2023/09/23 13:40:49;;;;;;;5.78;1.58;;;;;;;;;;5049692;28;20017;-84
2023/09/23 13:43:14;;;;;;;2.78;1.25;;;;;;;;;;5049409;28;20033;-84
2023/09/23 13:45:40;;;;;;;2.92;1.55;;;;;;;;;;5055095;28;20762;-82
2023/09/23 13:48:07;;;;;;;3.85;1.33;;;;;;;;;;5055459;28;20017;-82
2023/09/23 13:50:34;;;;;;;3.42;1.27;;;;;;;;;;5051149;28;20044;-82
2023/09/23 13:53:00;;;;;;;4.50;1.30;;;;;;;;;;5055358;28;20469;-83
2023/09/23 13:55:26;;;;;;;1.88;1.25;;;;;;;;;;5048742;28;20448;-82
2023/09/23 13:57:51;;;;;;;3.00;1.23;;;;;;;;;;5058708;28;20029;-81
2023/09/23 14:00:17;;;;;;;7.72;1.48;;;;;;;;;;5053115;28;20045;-83
2023/09/23 14:02:43;;;;;;;5.32;1.42;;;;;;;;;;5049947;28;20029;-83
2023/09/23 14:05:10;;;;;;;4.63;1.75;;;;;;;;;;5055636;28;20052;-83
2023/09/23 14:07:36;;;;;;;6.95;2.15;;;;;;;;;;5051896;28;20071;-84
2023/09/23 14:10:03;;;;;;;9.18;1.73;;;;;;;;;;5053371;28;20089;-83
2023/09/23 14:12:29;;;;;;;2.58;1.80;;;;;;;;;;5044867;28;20087;-83
2023/09/23 14:14:54;;;;;;;6.40;1.92;;;;;;;;;;5044381;28;20056;-83
2023/09/23 14:17:22;;;;;;;8.13;2.20;;;;;;;;;;5035668;28;20029;-82
2023/09/23 14:19:48;;;;;;;2.13;1.15;;;;;;;;;;5032849;28;20033;-81
2023/09/23 14:22:13;;;;;;;7.18;2.00;;;;;;;;;;5039514;28;20029;-82
2023/09/23 14:24:39;;;;;;;5.13;1.92;;;;;;;;;;5032132;28;20025;-82
2023/09/23 14:27:04;;;;;;;4.43;2.38;;;;;;;;;;5042406;28;20032;-80
2023/09/23 14:29:29;;;;;;;10.07;1.55;;;;;;;;;;5037231;28;20466;-82
2023/09/23 14:31:55;;;;;;;2.75;1.58;;;;;;;;;;5034249;28;20022;-84
2023/09/23 14:34:20;;;;;;;3.55;0.90;;;;;;;;;;5038115;28;20478;-83
2023/09/23 14:36:45;;;;;;;4.57;1.05;;;;;;;;;;5039052;28;20026;-82
2023/09/23 14:39:11;;;;;;;3.10;1.25;;;;;;;;;;5033977;28;20116;-83
2023/09/23 14:41:36;;;;;;;4.70;2.03;;;;;;;;;;5037709;28;20034;-82
2023/09/23 14:44:05;;;;;;;4.00;2.83;;;;;;;;;;5045608;28;20040;-84
2023/09/23 14:46:30;;;;;;;6.17;2.10;;;;;;;;;;5036170;28;20057;-84
2023/09/23 14:48:56;;;;;;;12.27;1.75;;;;;;;;;;5039248;28;20064;-82
2023/09/23 14:51:24;;;;;;;8.95;4.00;;;;;;;;;;5036881;28;20031;-82
2023/09/23 14:53:50;;;;;;;4.00;2.15;;;;;;;;;;5040336;28;20082;-82
2023/09/23 14:56:15;;;;;;;4.47;2.13;;;;;;;;;;5034848;28;20029;-82
2023/09/23 14:58:40;;;;;;;8.00;1.75;;;;;;;;;;5043295;28;20410;-82
2023/09/23 15:01:08;;;;;;;6.57;1.90;;;;;;;;;;5047011;28;20049;-82
2023/09/23 15:03:36;;;;;;;6.85;1.85;;;;;;;;;;5046164;28;20031;-81
2023/09/23 15:06:01;;;;;;;5.82;2.65;;;;;;;;;;5033634;28;20509;-81
2023/09/23 15:08:27;;;;;;;6.60;2.53;;;;;;;;;;5034134;28;20021;-82
2023/09/23 15:10:53;;;;;;;3.05;1.45;;;;;;;;;;5044005;28;20037;-81
2023/09/23 15:13:18;;;;;;;4.80;2.10;;;;;;;;;;5043665;28;20028;-81
2023/09/23 15:15:44;;;;;;;7.53;1.70;;;;;;;;;;5041350;28;20029;-82
2023/09/23 15:18:10;;;;;;;1.88;1.30;;;;;;;;;;5043427;28;20100;-82
2023/09/23 15:20:35;;;;;;;5.43;1.60;;;;;;;;;;5039145;28;20026;-84
2023/09/23 15:23:01;;;;;;;4.60;1.67;;;;;;;;;;5046923;28;20025;-80
2023/09/23 15:25:28;;;;;;;8.27;1.38;;;;;;;;;;5034513;28;20496;-80
2023/09/23 15:27:53;;;;;;;2.92;1.45;;;;;;;;;;5038939;28;20052;-82
2023/09/23 15:30:19;;;;;;;6.85;2.08;;;;;;;;;;5035861;28;20469;-82
2023/09/23 15:32:45;;;;;;;2.55;1.15;;;;;;;;;;5032996;28;20021;-83
2023/09/23 15:35:11;;;;;;;12.60;1.98;;;;;;;;;;5032253;28;20021;-82
2023/09/23 15:37:37;;;;;;;6.35;1.15;;;;;;;;;;5043821;28;20029;-82
2023/09/23 15:40:06;;;;;;;8.63;1.50;;;;;;;;;;5043870;28;20033;-83
2023/09/23 15:42:32;;;;;;;;;;;;;;;;;;5037885;28;20029;-82
2023/09/23 15:44:58;;;;;;;9.27;1.35;;;;;;;;;;5031736;28;20320;-86
2023/09/23 15:47:23;;;;;;;5.45;1.58;;;;;;;;;;5036010;28;20026;-83
2023/09/23 15:49:49;;;;;;;4.70;1.73;;;;;;;;;;5048023;28;20067;-82
2023/09/23 15:52:16;;;;;;;4.45;2.10;;;;;;;;;;5041686;28;20021;-83
2023/09/23 15:54:41;;;;;;;7.18;1.23;;;;;;;;;;5036492;28;20033;-82
2023/09/23 15:57:07;;;;;;;1.13;0.85;;;;;;;;;;5046745;28;20029;-82
2023/09/23 15:59:32;;;;;;;7.80;1.33;;;;;;;;;;5036936;28;20028;-81
2023/09/23 16:01:58;;;;;;;5.40;1.67;;;;;;;;;;5038035;28;20017;-82
2023/09/23 16:04:24;;;;;;;1.80;1.10;;;;;;;;;;5035660;28;20113;-81
2023/09/23 16:06:49;;;;;;;3.83;0.93;;;;;;;;;;5035089;28;20374;-82
2023/09/23 16:09:14;;;;;;;3.03;0.98;;;;;;;;;;5036867;28;20025;-81
2023/09/23 16:11:40;;;;;;;2.30;1.35;;;;;;;;;;5034115;28;20095;-82
2023/09/23 16:14:06;;;;;;;5.05;1.17;;;;;;;;;;5040867;28;20532;-83
2023/09/23 16:16:31;;;;;;;3.92;0.77;;;;;;;;;;5040469;28;20033;-82
2023/09/23 16:18:56;;;;;;;6.82;1.42;;;;;;;;;;5031639;28;20489;-82
2023/09/23 16:21:22;;;;;;;4.50;1.23;;;;;;;;;;5040695;28;20028;-82
2023/09/23 16:23:48;;;;;;;4.43;0.88;;;;;;;;;;5045005;28;20048;-82
2023/09/23 16:26:14;;;;;;;3.85;2.05;;;;;;;;;;5043403;28;20017;-84
2023/09/23 16:28:39;;;;;;;5.97;1.65;;;;;;;;;;5033907;28;20048;-81
2023/09/23 16:31:05;;;;;;;3.13;1.58;;;;;;;;;;5031743;28;20025;-80
2023/09/23 16:33:30;;;;;;;3.47;1.55;;;;;;;;;;5034194;28;20113;-83
2023/09/23 16:35:56;;;;;;;3.35;1.17;;;;;;;;;;5031909;28;20032;-83
2023/09/23 16:38:21;;;;;;;7.78;1.33;;;;;;;;;;5032337;28;20083;-81
2023/09/23 16:40:47;;;;;;;8.07;1.70;;;;;;;;;;5037516;28;20022;-84
2023/09/23 16:43:12;;;;;;;7.25;1.90;;;;;;;;;;5033381;28;20030;-85
2023/09/23 16:45:38;;;;;;;3.67;1.55;;;;;;;;;;5037818;28;20032;-82
2023/09/23 16:48:04;;;;;;;2.75;1.60;;;;;;;;;;5037585;28;20155;-85
2023/09/23 16:50:30;;;;;;;1.35;0.95;;;;;;;;;;5040746;28;20517;-82
2023/09/23 16:52:55;;;;;;;2.78;1.00;;;;;;;;;;5038146;28;20101;-83
2023/09/23 16:55:21;;;;;;;3.75;0.88;;;;;;;;;;5032327;28;20127;-82
